createdAt,value
2019-02-10T00:01:18.128Z,4.10
2019-02-10T00:03:45.305Z,4.17
2019-02-10T00:06:12.619Z,2.47
2019-02-10T00:08:39.669Z,3.60
2019-02-10T00:11:06.861Z,5.13
2019-02-10T00:13:34.148Z,2.80
2019-02-10T00:16:01.285Z,5.90
2019-02-10T00:18:28.350Z,2.20
2019-02-10T00:20:55.424Z,5.10
2019-02-10T00:23:22.527Z,3.07
2019-02-10T00:25:49.614Z,3.00
2019-02-10T00:28:16.672Z,2.20
2019-02-10T00:30:43.755Z,2.90
2019-02-10T00:33:10.852Z,5.50
2019-02-10T00:35:37.917Z,2.73
2019-02-10T00:38:05.006Z,3.23
2019-02-10T00:40:32.088Z,3.03
2019-02-10T00:42:59.204Z,2.50
2019-02-10T00:45:26.316Z,3.60
2019-02-10T00:47:53.400Z,2.67
2019-02-10T00:50:20.458Z,2.80
2019-02-10T00:52:47.540Z,3.90
2019-02-10T00:55:14.590Z,3.10
2019-02-10T00:57:41.819Z,3.00
2019-02-10T01:00:08.872Z,2.77
2019-02-10T01:02:35.977Z,2.33
2019-02-10T01:05:03.161Z,2.80
2019-02-10T01:07:30.262Z,2.17
2019-02-10T01:09:57.426Z,3.07
2019-02-10T01:12:24.510Z,3.43
2019-02-10T01:14:51.565Z,4.00
2019-02-10T01:17:18.948Z,1.60
2019-02-10T01:19:46.008Z,2.30
2019-02-10T01:22:13.107Z,2.40
2019-02-10T01:24:40.165Z,2.97
2019-02-10T01:27:07.271Z,1.83
2019-02-10T01:29:34.333Z,2.93
2019-02-10T01:32:01.382Z,2.57
2019-02-10T01:34:28.473Z,2.17
2019-02-10T01:36:55.546Z,2.83
2019-02-10T01:39:22.647Z,2.20
2019-02-10T01:41:49.730Z,3.70
2019-02-10T01:44:16.789Z,2.97
2019-02-10T01:46:43.989Z,2.17
2019-02-10T01:49:11.046Z,2.60
2019-02-10T01:51:38.163Z,2.27
2019-02-10T01:54:05.224Z,2.43
2019-02-10T01:56:32.278Z,2.07
2019-02-10T01:58:59.424Z,3.33
2019-02-10T02:01:26.482Z,3.20
2019-02-10T02:03:53.733Z,2.63
2019-02-10T02:06:20.846Z,2.87
2019-02-10T02:08:47.935Z,2.00
2019-02-10T02:11:15.025Z,3.00
2019-02-10T02:13:42.339Z,4.07
2019-02-10T02:16:09.449Z,3.00
2019-02-10T02:18:36.607Z,2.60
2019-02-10T02:21:03.658Z,4.00
2019-02-10T02:23:30.928Z,3.60
2019-02-10T02:25:58.059Z,2.00
2019-02-10T02:28:25.159Z,2.03
2019-02-10T02:30:52.247Z,2.20
2019-02-10T02:33:19.328Z,4.83
2019-02-10T02:35:46.582Z,2.13
2019-02-10T02:38:13.635Z,1.70
2019-02-10T02:40:40.695Z,2.27
2019-02-10T02:43:07.781Z,2.67
2019-02-10T02:45:34.950Z,2.83
2019-02-10T02:48:02.078Z,2.13
2019-02-10T02:50:29.143Z,2.77
2019-02-10T02:52:56.219Z,4.60
2019-02-10T02:55:23.313Z,2.60
2019-02-10T02:57:50.367Z,2.90
2019-02-10T03:00:17.458Z,3.17
2019-02-10T03:02:44.558Z,2.20
2019-02-10T03:05:11.773Z,4.07
2019-02-10T03:07:38.900Z,3.20
2019-02-10T03:10:06.017Z,2.80
2019-02-10T03:12:33.117Z,4.37
2019-02-10T03:15:00.342Z,1.70
2019-02-10T03:17:27.604Z,2.20
2019-02-10T03:19:54.667Z,1.87
2019-02-10T03:22:21.757Z,2.17
2019-02-10T03:24:48.962Z,2.53
2019-02-10T03:27:16.017Z,2.33
2019-02-10T03:29:43.111Z,2.77
2019-02-10T03:32:10.863Z,1.93
2019-02-10T03:34:38.186Z,2.50
2019-02-10T03:37:05.342Z,2.30
2019-02-10T03:39:32.423Z,1.90
2019-02-10T03:41:59.601Z,2.77
2019-02-10T03:44:26.794Z,2.83
2019-02-10T03:46:54.036Z,1.73
2019-02-10T03:49:21.099Z,1.83
2019-02-10T03:51:48.203Z,3.77
2019-02-10T03:54:15.260Z,2.57
2019-02-10T03:56:42.421Z,2.70
2019-02-10T03:59:09.509Z,3.27
2019-02-10T04:01:36.578Z,2.17
2019-02-10T04:04:03.776Z,1.80
2019-02-10T04:06:30.827Z,2.30
2019-02-10T04:08:57.883Z,3.13
2019-02-10T04:11:24.972Z,3.47
2019-02-10T04:13:52.168Z,2.43
2019-02-10T04:16:19.224Z,2.10
2019-02-10T04:18:46.336Z,2.13
2019-02-10T04:21:13.427Z,1.83
2019-02-10T04:23:40.567Z,1.70
2019-02-10T04:26:07.663Z,1.60
2019-02-10T04:28:34.716Z,2.93
2019-02-10T04:31:01.806Z,2.20
2019-02-10T04:33:30.771Z,1.70
2019-02-10T04:35:57.857Z,2.40
2019-02-10T04:38:24.914Z,1.90
2019-02-10T04:40:52.001Z,2.83
2019-02-10T04:43:19.196Z,1.97
2019-02-10T04:45:46.290Z,1.60
2019-02-10T04:48:13.349Z,1.87
2019-02-10T04:50:40.442Z,2.93
2019-02-10T04:53:07.524Z,1.93
2019-02-10T04:55:34.579Z,2.10
2019-02-10T04:58:01.669Z,1.63
2019-02-10T05:00:28.733Z,2.20
2019-02-10T05:02:55.820Z,2.27
2019-02-10T05:05:22.918Z,2.03
2019-02-10T05:07:54.527Z,1.80
2019-02-10T05:10:18.794Z,2.10
2019-02-10T05:12:45.855Z,1.67
2019-02-10T05:15:13.082Z,1.47
2019-02-10T05:17:40.143Z,2.10
2019-02-10T05:20:07.238Z,1.57
2019-02-10T05:22:34.390Z,2.27
2019-02-10T05:25:01.482Z,1.70
2019-02-10T05:27:28.567Z,2.27
2019-02-10T05:29:55.653Z,2.50
2019-02-10T05:32:22.844Z,3.30
2019-02-10T05:34:49.972Z,1.80
2019-02-10T05:37:17.122Z,2.03
2019-02-10T05:39:44.199Z,2.20
2019-02-10T05:42:11.259Z,1.57
2019-02-10T05:44:38.491Z,2.40
2019-02-10T05:47:05.580Z,2.30
2019-02-10T05:49:32.683Z,2.00
2019-02-10T05:51:59.779Z,2.27
2019-02-10T05:54:26.994Z,2.20
2019-02-10T05:56:54.314Z,2.60
2019-02-10T05:59:21.390Z,1.77
2019-02-10T06:01:48.536Z,3.60
2019-02-10T06:04:15.663Z,2.37
2019-02-10T06:06:42.806Z,3.47
2019-02-10T06:09:09.899Z,2.50
2019-02-10T06:11:36.962Z,2.20
2019-02-10T06:14:04.032Z,2.60
2019-02-10T06:16:31.305Z,2.33
2019-02-10T06:18:58.364Z,1.83
2019-02-10T06:21:25.443Z,3.77
2019-02-10T06:23:52.660Z,1.83
2019-02-10T06:26:19.743Z,3.00
2019-02-10T06:28:46.846Z,2.07
2019-02-10T06:31:13.907Z,2.20
2019-02-10T06:33:41.057Z,2.03
2019-02-10T06:36:08.106Z,2.00
2019-02-10T06:38:35.237Z,2.40
2019-02-10T06:41:02.292Z,2.40
2019-02-10T06:43:29.452Z,2.30
2019-02-10T06:45:56.507Z,2.80
2019-02-10T06:48:23.575Z,2.50
2019-02-10T06:50:50.802Z,1.93
2019-02-10T06:53:17.860Z,1.90
2019-02-10T06:55:44.930Z,2.10
2019-02-10T06:58:12.147Z,2.63
2019-02-10T07:00:39.196Z,2.07
2019-02-10T07:03:06.279Z,1.67
2019-02-10T07:05:33.349Z,2.90
2019-02-10T07:08:00.415Z,1.90
2019-02-10T07:10:28.579Z,1.33
2019-02-10T07:12:55.727Z,2.97
2019-02-10T07:15:22.827Z,5.10
2019-02-10T07:17:49.924Z,3.77
2019-02-10T07:20:17.005Z,6.87
2019-02-10T07:22:44.154Z,1.83
2019-02-10T07:25:11.334Z,7.47
2019-02-10T07:27:38.514Z,3.80
2019-02-10T07:30:05.805Z,8.37
2019-02-10T07:32:32.907Z,9.27
2019-02-10T07:34:59.977Z,21.50
2019-02-10T07:37:27.281Z,11.70
2019-02-10T07:39:54.644Z,12.77
2019-02-10T07:42:21.715Z,8.30
2019-02-10T07:44:48.826Z,5.40
2019-02-10T07:47:16.788Z,5.23
2019-02-10T07:49:43.981Z,8.73
2019-02-10T07:52:11.077Z,8.50
2019-02-10T07:54:42.230Z,9.40
2019-02-10T07:57:07.046Z,9.40
2019-02-10T07:59:34.105Z,6.97
2019-02-10T08:02:01.165Z,5.97
2019-02-10T08:04:28.391Z,10.80
2019-02-10T08:06:55.528Z,2.93
2019-02-10T08:09:22.647Z,7.00
2019-02-10T08:11:49.714Z,3.57
2019-02-10T08:14:16.974Z,12.67
2019-02-10T08:16:44.045Z,2.37
2019-02-10T08:19:11.162Z,3.47
2019-02-10T08:21:38.224Z,5.77
2019-02-10T08:24:05.321Z,4.90
2019-02-10T08:26:32.515Z,3.47
2019-02-10T08:28:59.574Z,3.83
2019-02-10T08:31:26.741Z,4.03
2019-02-10T08:33:53.805Z,4.20
2019-02-10T08:36:21.033Z,3.23
2019-02-10T08:38:54.424Z,4.73
2019-02-10T08:41:16.868Z,2.50
2019-02-10T08:43:43.925Z,5.37
2019-02-10T08:46:11.056Z,2.80
2019-02-10T08:48:38.155Z,2.17
2019-02-10T08:51:05.296Z,5.63
2019-02-10T08:53:32.401Z,4.63
2019-02-10T08:55:59.459Z,3.10
2019-02-10T08:58:26.575Z,4.07
2019-02-10T09:00:53.628Z,4.53
2019-02-10T09:03:20.810Z,4.13
2019-02-10T09:05:47.907Z,3.97
2019-02-10T09:08:14.953Z,3.40
2019-02-10T09:10:42.059Z,3.83
2019-02-10T09:13:09.130Z,3.23
2019-02-10T09:15:36.190Z,3.10
2019-02-10T09:18:03.315Z,4.50
2019-02-10T09:20:30.434Z,3.67
2019-02-10T09:22:57.533Z,4.10
2019-02-10T09:25:24.667Z,3.57
2019-02-10T09:27:51.752Z,3.23
2019-02-10T09:30:18.815Z,3.40
2019-02-10T09:32:45.913Z,4.17
2019-02-10T09:35:12.970Z,2.70
2019-02-10T09:37:40.075Z,3.10
2019-02-10T09:40:07.142Z,3.83
2019-02-10T09:42:34.236Z,5.90
2019-02-10T09:45:01.428Z,6.37
2019-02-10T09:47:28.513Z,9.17
2019-02-10T09:49:55.599Z,3.47
2019-02-10T09:52:22.686Z,7.10
2019-02-10T09:54:49.751Z,4.73
2019-02-10T09:57:16.868Z,7.80
2019-02-10T09:59:43.925Z,3.03
2019-02-10T10:02:11.018Z,5.40
2019-02-10T10:04:40.150Z,5.60
2019-02-10T10:07:07.327Z,3.00
2019-02-10T10:09:34.385Z,4.27
2019-02-10T10:12:01.480Z,6.53
2019-02-10T10:14:30.895Z,10.50
2019-02-10T10:16:57.341Z,8.80
2019-02-10T10:19:24.416Z,5.47
2019-02-10T10:21:51.498Z,8.00
2019-02-10T10:24:18.698Z,3.70
2019-02-10T10:26:45.753Z,2.70
2019-02-10T10:32:14.692Z,7.47
2019-02-10T10:34:45.006Z,6.47
2019-02-10T10:37:13.901Z,5.03
2019-02-10T10:39:42.989Z,4.70
2019-02-10T10:42:11.988Z,8.20
2019-02-10T10:44:44.031Z,5.83
2019-02-10T10:47:15.973Z,5.60
2019-02-10T10:49:43.164Z,9.23
2019-02-10T10:52:16.295Z,6.03
2019-02-10T10:54:45.329Z,6.20
2019-02-10T10:57:13.031Z,3.27
2019-02-10T10:59:56.365Z,8.47
2019-02-10T11:02:25.611Z,13.93
2019-02-10T11:05:08.353Z,3.93
2019-02-10T11:07:35.508Z,8.50
2019-02-10T11:10:08.090Z,6.13
2019-02-10T11:12:33.896Z,9.73
2019-02-10T11:15:02.918Z,7.13
2019-02-10T11:17:30.260Z,3.90
2019-02-10T11:19:57.427Z,10.13
2019-02-10T11:22:24.909Z,7.30
2019-02-10T11:24:53.328Z,4.63
2019-02-10T11:27:20.791Z,3.33
2019-02-10T11:29:49.704Z,4.30
2019-02-10T11:32:17.586Z,2.70
2019-02-10T11:34:46.234Z,3.97
2019-02-10T11:37:15.621Z,6.13
2019-02-10T11:39:44.100Z,2.60
2019-02-10T11:42:11.662Z,4.33
2019-02-10T11:44:38.838Z,3.27
2019-02-10T11:47:06.370Z,2.60
2019-02-10T11:49:33.597Z,3.40
2019-02-10T11:52:00.761Z,8.40
2019-02-10T11:54:32.111Z,6.80
2019-02-10T11:57:06.727Z,4.77
2019-02-10T11:59:37.502Z,2.43
2019-02-10T12:02:05.648Z,2.60
2019-02-10T12:04:34.325Z,4.13
2019-02-10T12:07:01.536Z,2.30
2019-02-10T12:09:31.188Z,2.87
2019-02-10T12:11:58.336Z,3.57
2019-02-10T12:14:25.550Z,3.70
2019-02-10T12:16:57.568Z,2.20
2019-02-10T12:19:24.800Z,1.70
2019-02-10T12:21:55.232Z,2.10
2019-02-10T12:24:22.360Z,2.77
2019-02-10T12:26:56.057Z,2.40
2019-02-10T12:29:45.902Z,2.67
2019-02-10T12:32:13.166Z,2.73
2019-02-10T12:34:41.609Z,4.00
2019-02-10T12:39:58.635Z,2.33
2019-02-10T12:42:30.636Z,4.63
2019-02-10T12:45:07.317Z,1.67
2019-02-10T12:47:36.307Z,1.97
2019-02-10T12:50:03.795Z,3.10
2019-02-10T12:52:31.123Z,2.00
2019-02-10T12:56:07.717Z,2.03
2019-02-10T12:58:07.551Z,3.70
2019-02-10T13:00:34.721Z,1.67
2019-02-10T13:03:01.844Z,1.60
2019-02-10T13:05:28.938Z,1.77
2019-02-10T13:07:56.035Z,2.40
2019-02-10T13:10:23.130Z,3.97
2019-02-10T13:12:50.202Z,2.17
2019-02-10T13:15:17.475Z,2.83
2019-02-10T13:17:44.602Z,1.90
2019-02-10T13:20:11.735Z,4.93
2019-02-10T13:22:38.808Z,2.00
2019-02-10T13:25:06.129Z,2.60
2019-02-10T13:27:33.192Z,7.30
2019-02-10T13:30:00.266Z,2.50
2019-02-10T13:32:27.502Z,5.07
2019-02-10T13:34:54.708Z,9.57
2019-02-10T13:37:21.947Z,5.47
2019-02-10T13:39:49.243Z,3.80
2019-02-10T13:42:16.300Z,3.07
2019-02-10T13:44:43.641Z,3.67
2019-02-10T13:47:10.692Z,5.00
2019-02-10T13:49:37.783Z,2.20
2019-02-10T13:52:04.833Z,4.80
2019-02-10T13:54:32.060Z,2.40
2019-02-10T13:56:59.185Z,1.90
2019-02-10T13:59:26.477Z,1.70
2019-02-10T14:01:53.623Z,2.03
2019-02-10T14:04:20.714Z,3.20
2019-02-10T14:06:47.818Z,3.07
2019-02-10T14:09:15.140Z,1.80
2019-02-10T14:11:42.229Z,3.23
2019-02-10T14:14:09.449Z,1.73
2019-02-10T14:16:36.536Z,1.80
2019-02-10T14:19:03.822Z,1.50
2019-02-10T14:21:30.906Z,1.43
2019-02-10T14:23:58.063Z,1.80
2019-02-10T14:26:25.285Z,2.30
2019-02-10T14:28:52.574Z,1.53
2019-02-10T14:31:19.669Z,8.83
2019-02-10T14:33:46.805Z,1.60
2019-02-10T14:36:13.906Z,1.57
2019-02-10T14:38:40.966Z,2.23
2019-02-10T14:41:08.046Z,1.67
2019-02-10T14:43:36.031Z,1.90
2019-02-10T14:46:03.206Z,2.90
2019-02-10T14:48:30.580Z,1.33
2019-02-10T14:50:57.690Z,1.30
2019-02-10T14:53:24.800Z,2.10
2019-02-10T14:55:51.866Z,3.33
2019-02-10T14:58:18.955Z,1.67
2019-02-10T15:00:46.018Z,4.10
2019-02-10T15:03:13.111Z,2.30
2019-02-10T15:05:40.222Z,4.30
2019-02-10T15:08:07.319Z,1.20
2019-02-10T15:10:41.537Z,1.33
2019-02-10T15:13:03.305Z,1.37
2019-02-10T15:15:30.405Z,2.87
2019-02-10T15:17:57.479Z,1.47
2019-02-10T15:20:24.620Z,1.43
2019-02-10T15:22:51.793Z,6.37
2019-02-10T15:25:19.101Z,3.63
2019-02-10T15:27:47.546Z,4.50
2019-02-10T15:30:14.996Z,4.03
2019-02-10T15:32:42.186Z,5.73
2019-02-10T15:35:09.268Z,5.87
2019-02-10T15:37:36.550Z,5.57
2019-02-10T15:40:03.770Z,6.87
2019-02-10T15:42:30.990Z,15.50
2019-02-10T15:44:58.256Z,8.07
2019-02-10T15:47:25.917Z,5.50
2019-02-10T15:49:53.134Z,7.83
2019-02-10T15:52:20.273Z,7.77
2019-02-10T15:55:10.492Z,7.40
2019-02-10T15:57:27.927Z,10.03
2019-02-10T15:59:55.091Z,7.83
2019-02-10T16:02:22.476Z,11.20
2019-02-10T16:04:49.787Z,12.77
2019-02-10T16:07:16.936Z,12.47
2019-02-10T16:09:44.144Z,10.07
2019-02-10T16:12:11.276Z,9.67
2019-02-10T16:14:38.353Z,9.77
2019-02-10T16:17:05.571Z,12.17
2019-02-10T16:19:32.657Z,13.17
2019-02-10T16:21:59.762Z,13.63
2019-02-10T16:24:26.886Z,14.37
2019-02-10T16:26:54.224Z,7.63
2019-02-10T16:29:21.462Z,10.17
2019-02-10T16:31:48.731Z,14.50
2019-02-10T16:34:15.844Z,8.30
2019-02-10T16:36:42.936Z,8.93
2019-02-10T16:39:10.046Z,9.83
2019-02-10T16:41:37.120Z,8.97
2019-02-10T16:44:04.309Z,9.03
2019-02-10T16:46:31.395Z,8.33
2019-02-10T16:48:58.577Z,7.17
2019-02-10T16:51:25.653Z,9.97
2019-02-10T16:53:52.937Z,7.73
2019-02-10T16:56:20.086Z,10.47
2019-02-10T16:58:47.295Z,7.80
2019-02-10T17:01:14.397Z,5.30
2019-02-10T17:03:41.523Z,6.07
2019-02-10T17:06:08.785Z,7.00
2019-02-10T17:08:35.967Z,5.80
2019-02-10T17:11:03.142Z,11.17
2019-02-10T17:13:30.330Z,8.07
2019-02-10T17:16:04.781Z,7.13
2019-02-10T17:18:26.435Z,7.87
2019-02-10T17:20:53.627Z,5.83
2019-02-10T17:23:20.792Z,5.97
2019-02-10T17:25:47.963Z,14.30
2019-02-10T17:28:15.092Z,11.03
2019-02-10T17:30:42.198Z,8.83
2019-02-10T17:33:09.300Z,10.00
2019-02-10T17:35:36.485Z,9.03
2019-02-10T17:38:03.559Z,10.47
2019-02-10T17:40:30.706Z,14.03
2019-02-10T17:42:57.867Z,5.80
2019-02-10T17:45:25.006Z,14.10
2019-02-10T17:47:52.104Z,7.33
2019-02-10T17:50:19.235Z,16.40
2019-02-10T17:52:46.342Z,9.70
2019-02-10T17:55:13.669Z,23.57
2019-02-10T17:57:40.787Z,12.83
2019-02-10T18:00:08.473Z,14.97
2019-02-10T18:02:35.713Z,20.83
2019-02-10T18:05:03.056Z,21.87
2019-02-10T18:07:30.152Z,14.80
2019-02-10T18:09:57.274Z,16.83
2019-02-10T18:12:24.350Z,25.87
2019-02-10T18:14:51.440Z,12.83
2019-02-10T18:17:19.357Z,10.80
2019-02-10T18:19:46.431Z,7.13
2019-02-10T18:22:13.546Z,10.77
2019-02-10T18:24:40.702Z,4.90
2019-02-10T18:27:07.871Z,5.60
2019-02-10T18:29:36.558Z,9.10
2019-02-10T18:32:04.105Z,10.13
2019-02-10T18:34:31.196Z,8.23
2019-02-10T18:36:58.362Z,4.57
2019-02-10T18:39:25.434Z,9.50
2019-02-10T18:41:52.516Z,10.30
2019-02-10T18:44:19.743Z,8.03
2019-02-10T18:46:46.893Z,10.03
2019-02-10T18:49:14.029Z,8.33
2019-02-10T18:51:41.102Z,5.60
2019-02-10T18:54:08.223Z,9.80
2019-02-10T18:56:35.382Z,15.87
2019-02-10T18:59:02.439Z,16.23
2019-02-10T19:01:29.507Z,9.00
2019-02-10T19:03:56.695Z,2.30
2019-02-10T19:06:23.810Z,3.10
2019-02-10T19:08:50.970Z,3.67
2019-02-10T19:11:18.143Z,6.07
2019-02-10T19:13:45.337Z,3.57
2019-02-10T19:16:12.498Z,4.77
2019-02-10T19:18:42.501Z,5.07
2019-02-10T19:21:11.741Z,2.00
2019-02-10T19:23:39.151Z,3.77
2019-02-10T19:26:06.695Z,3.37
2019-02-10T19:28:38.423Z,3.90
2019-02-10T19:31:07.731Z,2.67
2019-02-10T19:33:35.687Z,6.37
2019-02-10T19:36:02.841Z,8.23
2019-02-10T19:38:31.017Z,5.10
2019-02-10T19:41:00.006Z,6.20
2019-02-10T19:43:28.571Z,4.00
2019-02-10T19:45:55.770Z,6.23
2019-02-10T19:48:22.875Z,4.50
2019-02-10T19:50:49.946Z,9.77
2019-02-10T19:53:17.022Z,10.03
2019-02-10T19:55:44.171Z,3.80
2019-02-10T19:58:11.260Z,5.50
2019-02-10T20:00:38.339Z,3.00
2019-02-10T20:03:05.407Z,2.03
2019-02-10T20:05:32.596Z,3.87
2019-02-10T20:07:59.687Z,3.20
2019-02-10T20:10:26.770Z,2.00
2019-02-10T20:12:53.847Z,6.50
2019-02-10T20:15:20.943Z,5.10
2019-02-10T20:17:49.438Z,6.60
2019-02-10T20:20:16.763Z,3.80
2019-02-10T20:22:43.853Z,2.57
2019-02-10T20:25:10.972Z,6.40
2019-02-10T20:27:38.454Z,2.77
2019-02-10T20:30:05.646Z,2.93
2019-02-10T20:32:33.189Z,2.10
2019-02-10T20:35:00.277Z,1.43
2019-02-10T20:37:29.536Z,1.70
2019-02-10T20:39:56.618Z,3.40
2019-02-10T20:42:23.769Z,4.27
2019-02-10T20:44:50.898Z,10.03
2019-02-10T20:47:21.101Z,2.00
2019-02-10T20:49:48.212Z,2.73
2019-02-10T20:52:15.357Z,4.60
2019-02-10T20:54:42.433Z,1.47
2019-02-10T20:57:09.601Z,2.10
2019-02-10T20:59:36.745Z,1.73
2019-02-10T21:02:03.857Z,1.37
2019-02-10T21:04:31.171Z,1.80
2019-02-10T21:06:58.307Z,0.97
2019-02-10T21:09:25.463Z,2.07
2019-02-10T21:11:52.621Z,3.83
2019-02-10T21:14:22.518Z,3.17
2019-02-10T21:16:49.614Z,1.00
2019-02-10T21:19:16.710Z,2.93
2019-02-10T21:21:43.795Z,1.03
2019-02-10T21:24:10.996Z,2.40
2019-02-10T21:26:38.059Z,10.13
2019-02-10T21:29:05.166Z,2.67
2019-02-10T21:31:32.253Z,7.50
2019-02-10T21:33:59.390Z,4.43
2019-02-10T21:36:26.452Z,4.13
2019-02-10T21:38:53.539Z,3.63
2019-02-10T21:41:20.606Z,0.97
2019-02-10T21:43:47.862Z,6.37
2019-02-10T21:46:15.088Z,1.13
2019-02-10T21:48:42.383Z,2.80
2019-02-10T21:51:09.565Z,1.70
2019-02-10T21:53:36.904Z,2.60
2019-02-10T21:56:04.002Z,1.00
2019-02-10T21:58:31.094Z,1.30
2019-02-10T22:00:58.182Z,1.17
2019-02-10T22:03:25.238Z,0.93
2019-02-10T22:05:53.880Z,1.33
2019-02-10T22:08:20.966Z,1.63
2019-02-10T22:10:48.071Z,1.20
2019-02-10T22:13:15.129Z,2.00
2019-02-10T22:15:42.223Z,1.23
2019-02-10T22:18:09.504Z,0.70
2019-02-10T22:20:36.605Z,0.70
2019-02-10T22:23:03.752Z,0.87
2019-02-10T22:25:31.570Z,1.13
2019-02-10T22:27:58.673Z,0.57
2019-02-10T22:30:25.731Z,1.67
2019-02-10T22:32:52.843Z,0.70
2019-02-10T22:35:19.916Z,2.70
2019-02-10T22:37:47.040Z,0.90
2019-02-10T22:40:14.168Z,0.70
2019-02-10T22:42:45.792Z,0.90
2019-02-10T22:45:10.080Z,0.40
2019-02-10T22:47:37.352Z,0.70
2019-02-10T22:50:04.515Z,1.33
2019-02-10T22:52:31.695Z,0.60
2019-02-10T22:54:58.904Z,0.50
2019-02-10T22:57:26.001Z,1.53
2019-02-10T22:59:53.093Z,0.57
2019-02-10T23:02:20.153Z,0.50
2019-02-10T23:04:47.301Z,0.60
2019-02-10T23:07:14.809Z,0.60
2019-02-10T23:09:41.947Z,0.77
2019-02-10T23:12:09.041Z,0.43
2019-02-10T23:14:36.118Z,0.50
2019-02-10T23:17:03.386Z,0.67
2019-02-10T23:19:31.435Z,0.47
2019-02-10T23:21:58.528Z,0.67
2019-02-10T23:24:28.347Z,0.50
2019-02-10T23:26:55.447Z,0.93
2019-02-10T23:29:22.514Z,0.87
2019-02-10T23:31:49.615Z,0.40
2019-02-10T23:34:16.673Z,0.40
2019-02-10T23:36:43.846Z,0.40
2019-02-10T23:39:10.904Z,0.50
2019-02-10T23:41:38.008Z,0.77
2019-02-10T23:44:05.051Z,0.40
2019-02-10T23:46:32.121Z,0.50
2019-02-10T23:48:59.298Z,0.50
2019-02-10T23:51:26.822Z,0.40
2019-02-10T23:53:53.983Z,0.40
2019-02-10T23:56:21.041Z,0.67
2019-02-10T23:58:48.153Z,0.40
